createdAt,value
2022-11-09T00:01:09.613Z,70.50
2022-11-09T00:06:13.226Z,71.90
2022-11-09T00:11:18.034Z,70.80
2022-11-09T00:16:22.923Z,70.70
2022-11-09T00:21:27.217Z,70.70
2022-11-09T00:26:32.009Z,70.90
2022-11-09T00:31:35.408Z,70.90
2022-11-09T00:36:38.783Z,70.80
2022-11-09T00:41:43.440Z,70.90
2022-11-09T00:46:46.803Z,70.80
2022-11-09T00:51:50.228Z,70.80
2022-11-09T00:56:55.041Z,70.70
2022-11-09T01:01:58.381Z,70.70
2022-11-09T01:07:01.887Z,70.80
2022-11-09T01:12:06.945Z,70.60
2022-11-09T01:17:10.545Z,70.60
2022-11-09T01:22:14.544Z,71.60
2022-11-09T01:27:19.218Z,70.60
2022-11-09T01:32:22.914Z,70.60
2022-11-09T01:37:26.300Z,70.50
2022-11-09T01:42:31.067Z,70.60
2022-11-09T01:47:34.695Z,70.90
2022-11-09T01:52:42.071Z,70.40
2022-11-09T01:57:50.835Z,71.20
2022-11-09T02:02:57.683Z,70.20
2022-11-09T02:08:02.821Z,70.30
2022-11-09T02:13:09.261Z,70.30
2022-11-09T02:18:12.878Z,70.20
2022-11-09T02:23:18.620Z,70.30
2022-11-09T02:28:22.753Z,70.30
2022-11-09T02:33:26.150Z,70.20
2022-11-09T02:38:30.836Z,70.10
2022-11-09T02:43:34.902Z,70.40
2022-11-09T02:48:38.745Z,70.60
2022-11-09T02:53:43.717Z,70.60
2022-11-09T02:58:47.104Z,70.50
2022-11-09T03:03:50.781Z,70.40
2022-11-09T03:08:55.522Z,70.50
2022-11-09T03:13:59.541Z,70.60
2022-11-09T03:19:03.206Z,70.90
2022-11-09T03:24:08.853Z,71.00
2022-11-09T03:29:12.504Z,71.00
2022-11-09T03:34:16.176Z,70.80
2022-11-09T03:39:20.903Z,70.60
2022-11-09T03:44:24.516Z,70.70
2022-11-09T03:49:27.891Z,70.70
2022-11-09T03:54:32.635Z,70.60
2022-11-09T03:59:36.233Z,70.60
2022-11-09T04:04:39.617Z,70.40
2022-11-09T04:09:44.345Z,70.20
2022-11-09T04:14:47.827Z,70.00
2022-11-09T04:19:51.441Z,70.00
2022-11-09T04:24:56.447Z,70.00
2022-11-09T04:29:59.838Z,70.60
2022-11-09T04:35:04.162Z,71.10
2022-11-09T04:40:10.822Z,71.40
2022-11-09T04:45:14.295Z,71.10
2022-11-09T04:50:17.939Z,70.80
2022-11-09T04:55:23.987Z,71.20
2022-11-09T05:00:28.044Z,71.60
2022-11-09T05:05:31.502Z,71.80
2022-11-09T05:10:37.025Z,71.80
2022-11-09T05:15:40.867Z,71.90
2022-11-09T05:20:44.274Z,71.80
2022-11-09T05:25:49.569Z,71.50
2022-11-09T05:30:53.109Z,71.60
2022-11-09T05:35:56.847Z,71.40
2022-11-09T05:41:01.600Z,71.30
2022-11-09T05:46:06.738Z,71.70
2022-11-09T05:51:13.088Z,72.00
2022-11-09T05:56:17.848Z,71.90
2022-11-09T06:01:21.198Z,72.10
2022-11-09T06:06:24.846Z,72.00
2022-11-09T06:11:29.573Z,72.10
2022-11-09T06:16:32.971Z,72.00
2022-11-09T06:21:36.364Z,72.10
2022-11-09T06:26:41.132Z,72.00
2022-11-09T06:31:44.492Z,72.10
2022-11-09T06:36:47.848Z,72.00
2022-11-09T06:41:52.657Z,72.10
2022-11-09T06:46:56.296Z,72.00
2022-11-09T06:51:59.734Z,72.10
2022-11-09T06:57:04.688Z,72.20
2022-11-09T07:02:10.032Z,72.20
2022-11-09T07:07:13.490Z,72.30
2022-11-09T07:12:18.240Z,72.30
2022-11-09T07:17:21.921Z,72.50
2022-11-09T07:22:25.341Z,72.50
2022-11-09T07:27:30.472Z,72.60
2022-11-09T07:33:07.005Z,72.90
2022-11-09T07:38:01.405Z,73.00
2022-11-09T07:43:07.472Z,73.30
2022-11-09T07:48:12.785Z,73.50
2022-11-09T07:53:17.254Z,73.50
2022-11-09T07:58:21.931Z,73.50
2022-11-09T08:03:26.251Z,73.50
2022-11-09T08:08:29.585Z,73.80
2022-11-09T08:13:34.320Z,73.80
2022-11-09T08:18:37.746Z,74.00
2022-11-09T08:23:41.776Z,73.80
2022-11-09T08:28:47.018Z,73.60
2022-11-09T08:33:50.618Z,73.40
2022-11-09T08:39:02.970Z,73.30
2022-11-09T08:44:09.896Z,73.20
2022-11-09T08:49:17.555Z,73.10
2022-11-09T08:54:21.717Z,72.70
2022-11-09T08:59:26.447Z,72.50
2022-11-09T09:04:30.504Z,72.50
2022-11-09T09:09:34.648Z,72.30
2022-11-09T09:14:39.333Z,72.30
2022-11-09T09:19:48.826Z,71.90
2022-11-09T09:24:53.718Z,71.40
2022-11-09T09:29:59.408Z,71.50
2022-11-09T09:35:02.886Z,71.30
2022-11-09T09:40:08.215Z,70.90
2022-11-09T09:45:19.430Z,70.80
2022-11-09T09:50:27.996Z,70.40
2022-11-09T09:55:40.164Z,70.00
2022-11-09T10:00:45.712Z,69.80
2022-11-09T10:06:00.394Z,69.10
2022-11-09T10:11:17.442Z,68.90
2022-11-09T10:16:30.496Z,68.90
2022-11-09T10:21:44.915Z,68.70
2022-11-09T10:26:56.047Z,68.70
2022-11-09T10:32:10.905Z,68.00
2022-11-09T10:37:18.495Z,68.30
2022-11-09T10:42:21.907Z,68.20
2022-11-09T10:47:26.901Z,67.30
2022-11-09T10:52:42.977Z,67.50
2022-11-09T10:57:57.622Z,67.00
2022-11-09T11:03:12.132Z,66.90
2022-11-09T11:08:34.478Z,66.50
2022-11-09T11:13:37.923Z,67.00
2022-11-09T11:18:46.557Z,66.40
2022-11-09T11:24:16.129Z,66.10
2022-11-09T11:29:35.823Z,65.00
2022-11-09T11:35:01.292Z,65.40
2022-11-09T11:40:10.899Z,63.90
2022-11-09T11:45:41.492Z,63.50
2022-11-09T11:50:51.309Z,63.80
2022-11-09T11:56:22.391Z,64.10
2022-11-09T12:01:40.287Z,64.40
2022-11-09T12:07:10.662Z,64.90
2022-11-09T12:12:24.610Z,65.10
2022-11-09T12:17:34.823Z,64.00
2022-11-09T12:22:54.218Z,61.10
2022-11-09T12:28:10.400Z,60.20
2022-11-09T12:33:19.869Z,58.20
2022-11-09T12:38:31.723Z,58.50
2022-11-09T12:43:48.404Z,58.00
2022-11-09T12:48:51.916Z,56.50
2022-11-09T12:53:57.483Z,57.20
2022-11-09T12:59:21.795Z,57.80
2022-11-09T13:04:27.306Z,58.80
2022-11-09T13:09:44.156Z,59.10
2022-11-09T13:14:48.388Z,58.90
2022-11-09T13:19:55.324Z,58.90
2022-11-09T13:25:01.250Z,58.80
2022-11-09T13:30:41.785Z,58.60
2022-11-09T13:36:18.774Z,58.40
2022-11-09T13:41:43.759Z,58.50
2022-11-09T13:46:48.416Z,57.50
2022-11-09T13:51:52.043Z,57.40
2022-11-09T13:56:58.201Z,55.90
2022-11-09T14:02:03.227Z,56.20
2022-11-09T14:07:08.495Z,56.10
2022-11-09T14:12:24.986Z,55.00
2022-11-09T14:17:34.773Z,55.60
2022-11-09T14:22:41.346Z,55.70
2022-11-09T14:27:57.035Z,55.90
2022-11-09T14:33:00.585Z,55.80
2022-11-09T14:38:18.414Z,55.70
2022-11-09T14:43:28.696Z,55.10
2022-11-09T14:48:33.327Z,55.70
2022-11-09T14:53:38.483Z,56.20
2022-11-09T14:58:45.213Z,56.80
2022-11-09T15:04:07.769Z,57.30
2022-11-09T15:09:18.117Z,57.80
2022-11-09T15:14:28.851Z,58.30
2022-11-09T15:19:35.161Z,58.70
2022-11-09T15:24:49.265Z,59.00
2022-11-09T15:29:54.077Z,59.30
2022-11-09T15:35:00.251Z,59.40
2022-11-09T15:40:03.832Z,59.70
2022-11-09T15:45:09.653Z,59.90
2022-11-09T15:50:18.142Z,60.10
2022-11-09T15:55:23.910Z,60.20
2022-11-09T16:00:28.857Z,60.40
2022-11-09T16:05:32.943Z,60.50
2022-11-09T16:10:39.672Z,60.60
2022-11-09T16:15:44.485Z,60.70
2022-11-09T16:20:47.884Z,61.10
2022-11-09T16:25:51.287Z,61.20
2022-11-09T16:30:57.111Z,61.20
2022-11-09T16:36:02.558Z,61.30
2022-11-09T16:41:06.720Z,61.60
2022-11-09T16:46:12.514Z,61.60
2022-11-09T16:51:15.951Z,61.80
2022-11-09T16:56:19.347Z,62.00
2022-11-09T17:01:24.426Z,62.00
2022-11-09T17:06:28.406Z,62.30
2022-11-09T17:11:32.112Z,62.30
2022-11-09T17:16:37.652Z,62.40
2022-11-09T17:21:41.058Z,62.80
2022-11-09T17:26:44.407Z,62.80
2022-11-09T17:31:49.180Z,62.90
2022-11-09T17:37:07.844Z,63.00
2022-11-09T17:42:11.615Z,63.10
2022-11-09T17:47:16.344Z,63.00
2022-11-09T17:52:20.917Z,63.10
2022-11-09T17:57:27.223Z,63.10
2022-11-09T18:02:32.252Z,63.10
2022-11-09T18:07:35.947Z,63.20
2022-11-09T18:12:39.338Z,63.30
2022-11-09T18:17:44.063Z,63.40
2022-11-09T18:22:47.475Z,63.50
2022-11-09T18:27:52.404Z,63.50
2022-11-09T18:32:57.144Z,63.60
2022-11-09T18:38:00.507Z,63.80
2022-11-09T18:43:04.075Z,63.70
2022-11-09T18:48:08.885Z,63.70
2022-11-09T18:53:12.355Z,63.80
2022-11-09T18:58:16.114Z,64.00
2022-11-09T19:03:23.359Z,64.00
2022-11-09T19:08:44.821Z,64.20
2022-11-09T19:13:51.384Z,64.20
2022-11-09T19:18:56.715Z,64.20
2022-11-09T19:24:00.965Z,64.40
2022-11-09T19:29:06.881Z,64.80
2022-11-09T19:34:12.508Z,65.00
2022-11-09T19:39:17.312Z,65.10
2022-11-09T19:44:24.201Z,65.10
2022-11-09T19:49:29.090Z,65.10
2022-11-09T19:54:32.482Z,65.20
2022-11-09T19:59:36.327Z,65.30
2022-11-09T20:04:43.486Z,65.50
2022-11-09T20:09:46.897Z,65.60
2022-11-09T20:14:50.323Z,65.70
2022-11-09T20:19:55.031Z,65.70
2022-11-09T20:24:58.660Z,65.70
2022-11-09T20:30:02.260Z,65.70
2022-11-09T20:35:08.257Z,65.80
2022-11-09T20:40:12.930Z,65.90
2022-11-09T20:45:16.663Z,65.90
2022-11-09T20:50:21.612Z,66.00
2022-11-09T20:55:25.316Z,66.00
2022-11-09T21:00:28.788Z,66.10
2022-11-09T21:05:34.465Z,66.10
2022-11-09T21:10:37.902Z,66.10
2022-11-09T21:15:41.287Z,66.10
2022-11-09T21:20:46.244Z,66.10
2022-11-09T21:26:07.379Z,66.30
2022-11-09T21:31:11.128Z,66.40
2022-11-09T21:36:16.129Z,66.40
2022-11-09T21:41:37.294Z,66.60
2022-11-09T21:46:42.512Z,66.50
2022-11-09T21:51:48.219Z,66.50
2022-11-09T21:56:52.956Z,66.50
2022-11-09T22:01:56.396Z,66.40
2022-11-09T22:07:01.285Z,66.60
2022-11-09T22:12:22.520Z,66.80
2022-11-09T22:17:25.964Z,66.60
2022-11-09T22:22:33.562Z,66.50
2022-11-09T22:27:37.040Z,66.70
2022-11-09T22:32:40.386Z,67.10
2022-11-09T22:37:45.362Z,67.40
2022-11-09T22:42:48.744Z,67.70
2022-11-09T22:47:52.578Z,67.50
2022-11-09T22:53:03.504Z,67.30
2022-11-09T22:58:07.411Z,67.20
2022-11-09T23:03:10.765Z,67.10
2022-11-09T23:08:15.753Z,67.10
2022-11-09T23:13:19.488Z,67.20
2022-11-09T23:18:41.132Z,67.40
2022-11-09T23:23:46.311Z,67.30
2022-11-09T23:28:51.354Z,67.40
2022-11-09T23:33:56.549Z,67.50
2022-11-09T23:39:01.252Z,68.00
2022-11-09T23:44:04.619Z,68.20
2022-11-09T23:49:08.480Z,68.50
2022-11-09T23:54:13.174Z,69.00
2022-11-09T23:59:16.553Z,69.20
